sensor_id;sensor_type;location;lat;lon;timestamp;P1;durP1;ratioP1;P2;durP2;ratioP2
11510;SDS011;5812;48.864;9.190;2022-12-18T00:01:53;27.33;;;27.03;;
11510;SDS011;5812;48.864;9.190;2022-12-18T00:04:23;26.77;;;26.47;;
11510;SDS011;5812;48.864;9.190;2022-12-18T00:06:50;27.70;;;27.40;;
11510;SDS011;5812;48.864;9.190;2022-12-18T00:09:16;26.43;;;26.13;;
11510;SDS011;5812;48.864;9.190;2022-12-18T00:11:42;25.77;;;25.47;;
11510;SDS011;5812;48.864;9.190;2022-12-18T00:14:08;28.47;;;28.17;;
11510;SDS011;5812;48.864;9.190;2022-12-18T00:16:36;29.27;;;28.97;;
11510;SDS011;5812;48.864;9.190;2022-12-18T00:19:02;28.07;;;27.77;;
11510;SDS011;5812;48.864;9.190;2022-12-18T00:21:29;27.60;;;27.30;;
11510;SDS011;5812;48.864;9.190;2022-12-18T00:23:57;28.80;;;28.50;;
11510;SDS011;5812;48.864;9.190;2022-12-18T00:26:29;28.40;;;28.10;;
11510;SDS011;5812;48.864;9.190;2022-12-18T00:29:07;27.40;;;27.10;;
11510;SDS011;5812;48.864;9.190;2022-12-18T00:31:43;24.10;;;23.90;;
11510;SDS011;5812;48.864;9.190;2022-12-18T00:34:14;26.03;;;25.73;;
11510;SDS011;5812;48.864;9.190;2022-12-18T00:36:40;26.60;;;26.30;;
11510;SDS011;5812;48.864;9.190;2022-12-18T00:39:06;27.23;;;26.93;;
11510;SDS011;5812;48.864;9.190;2022-12-18T00:41:32;26.23;;;25.93;;
11510;SDS011;5812;48.864;9.190;2022-12-18T00:44:17;25.27;;;24.97;;
11510;SDS011;5812;48.864;9.190;2022-12-18T00:46:44;26.73;;;26.40;;
11510;SDS011;5812;48.864;9.190;2022-12-18T00:49:11;26.30;;;26.00;;
11510;SDS011;5812;48.864;9.190;2022-12-18T00:51:39;27.03;;;26.73;;
11510;SDS011;5812;48.864;9.190;2022-12-18T00:54:05;26.63;;;26.33;;
11510;SDS011;5812;48.864;9.190;2022-12-18T00:56:31;26.87;;;26.57;;
11510;SDS011;5812;48.864;9.190;2022-12-18T00:58:56;27.17;;;26.87;;
11510;SDS011;5812;48.864;9.190;2022-12-18T01:01:22;26.07;;;25.67;;
11510;SDS011;5812;48.864;9.190;2022-12-18T01:03:47;25.63;;;25.33;;
11510;SDS011;5812;48.864;9.190;2022-12-18T01:06:14;25.13;;;24.83;;
11510;SDS011;5812;48.864;9.190;2022-12-18T01:08:40;28.50;;;28.20;;
11510;SDS011;5812;48.864;9.190;2022-12-18T01:11:07;28.70;;;28.40;;
11510;SDS011;5812;48.864;9.190;2022-12-18T01:13:33;27.03;;;26.73;;
11510;SDS011;5812;48.864;9.190;2022-12-18T01:15:59;26.67;;;26.37;;
11510;SDS011;5812;48.864;9.190;2022-12-18T01:18:25;27.57;;;27.27;;
11510;SDS011;5812;48.864;9.190;2022-12-18T01:20:50;28.67;;;28.37;;
11510;SDS011;5812;48.864;9.190;2022-12-18T01:23:16;27.03;;;26.73;;
11510;SDS011;5812;48.864;9.190;2022-12-18T01:25:41;26.57;;;26.27;;
11510;SDS011;5812;48.864;9.190;2022-12-18T01:28:07;27.43;;;27.13;;
11510;SDS011;5812;48.864;9.190;2022-12-18T01:30:33;25.63;;;25.33;;
11510;SDS011;5812;48.864;9.190;2022-12-18T01:32:58;27.50;;;27.20;;
11510;SDS011;5812;48.864;9.190;2022-12-18T01:35:24;26.27;;;26.03;;
11510;SDS011;5812;48.864;9.190;2022-12-18T01:37:53;27.73;;;27.43;;
11510;SDS011;5812;48.864;9.190;2022-12-18T01:40:20;26.97;;;26.67;;
11510;SDS011;5812;48.864;9.190;2022-12-18T01:42:49;27.60;;;27.30;;
11510;SDS011;5812;48.864;9.190;2022-12-18T01:50:13;28.27;;;27.97;;
11510;SDS011;5812;48.864;9.190;2022-12-18T01:52:44;27.87;;;27.57;;
11510;SDS011;5812;48.864;9.190;2022-12-18T01:55:16;26.30;;;26.00;;
11510;SDS011;5812;48.864;9.190;2022-12-18T01:57:45;27.27;;;26.97;;
11510;SDS011;5812;48.864;9.190;2022-12-18T02:00:14;29.20;;;28.90;;
11510;SDS011;5812;48.864;9.190;2022-12-18T02:02:45;26.33;;;26.03;;
11510;SDS011;5812;48.864;9.190;2022-12-18T02:05:12;29.47;;;29.17;;
11510;SDS011;5812;48.864;9.190;2022-12-18T02:10:13;26.27;;;25.97;;
11510;SDS011;5812;48.864;9.190;2022-12-18T02:15:44;27.53;;;27.23;;
11510;SDS011;5812;48.864;9.190;2022-12-18T02:18:32;26.03;;;25.80;;
11510;SDS011;5812;48.864;9.190;2022-12-18T02:23:56;24.83;;;24.60;;
11510;SDS011;5812;48.864;9.190;2022-12-18T02:26:41;27.60;;;27.30;;
11510;SDS011;5812;48.864;9.190;2022-12-18T02:29:22;25.93;;;25.63;;
11510;SDS011;5812;48.864;9.190;2022-12-18T02:31:56;26.57;;;26.27;;
11510;SDS011;5812;48.864;9.190;2022-12-18T02:34:27;24.63;;;24.33;;
11510;SDS011;5812;48.864;9.190;2022-12-18T02:37:02;26.23;;;25.93;;
11510;SDS011;5812;48.864;9.190;2022-12-18T02:39:32;25.67;;;25.37;;
11510;SDS011;5812;48.864;9.190;2022-12-18T02:41:59;25.43;;;25.13;;
11510;SDS011;5812;48.864;9.190;2022-12-18T02:44:27;26.20;;;25.90;;
11510;SDS011;5812;48.864;9.190;2022-12-18T02:46:53;25.30;;;25.00;;
11510;SDS011;5812;48.864;9.190;2022-12-18T02:52:07;24.77;;;24.47;;
11510;SDS011;5812;48.864;9.190;2022-12-18T02:57:34;23.20;;;23.00;;
11510;SDS011;5812;48.864;9.190;2022-12-18T03:00:14;24.03;;;23.73;;
11510;SDS011;5812;48.864;9.190;2022-12-18T03:08:22;24.70;;;24.47;;
11510;SDS011;5812;48.864;9.190;2022-12-18T03:11:12;24.20;;;24.00;;
11510;SDS011;5812;48.864;9.190;2022-12-18T03:13:42;24.73;;;24.50;;
11510;SDS011;5812;48.864;9.190;2022-12-18T03:16:10;25.43;;;25.17;;
11510;SDS011;5812;48.864;9.190;2022-12-18T03:18:43;24.20;;;24.00;;
11510;SDS011;5812;48.864;9.190;2022-12-18T03:21:09;24.37;;;24.17;;
11510;SDS011;5812;48.864;9.190;2022-12-18T03:23:42;25.73;;;25.43;;
11510;SDS011;5812;48.864;9.190;2022-12-18T03:26:12;25.07;;;24.87;;
11510;SDS011;5812;48.864;9.190;2022-12-18T03:28:46;23.13;;;22.93;;
11510;SDS011;5812;48.864;9.190;2022-12-18T03:31:16;24.87;;;24.67;;
11510;SDS011;5812;48.864;9.190;2022-12-18T03:33:54;24.10;;;23.90;;
11510;SDS011;5812;48.864;9.190;2022-12-18T03:36:22;22.00;;;21.80;;
11510;SDS011;5812;48.864;9.190;2022-12-18T03:38:48;21.93;;;21.73;;
11510;SDS011;5812;48.864;9.190;2022-12-18T03:44:13;24.87;;;24.57;;
11510;SDS011;5812;48.864;9.190;2022-12-18T03:46:48;22.17;;;21.93;;
11510;SDS011;5812;48.864;9.190;2022-12-18T03:52:21;22.07;;;21.77;;
11510;SDS011;5812;48.864;9.190;2022-12-18T03:55:11;21.87;;;21.67;;
11510;SDS011;5812;48.864;9.190;2022-12-18T03:57:37;20.70;;;20.50;;
11510;SDS011;5812;48.864;9.190;2022-12-18T04:00:06;22.03;;;21.83;;
11510;SDS011;5812;48.864;9.190;2022-12-18T04:02:38;21.27;;;21.07;;
11510;SDS011;5812;48.864;9.190;2022-12-18T04:05:08;21.17;;;20.97;;
11510;SDS011;5812;48.864;9.190;2022-12-18T04:07:37;21.87;;;21.67;;
11510;SDS011;5812;48.864;9.190;2022-12-18T04:10:05;22.47;;;22.27;;
11510;SDS011;5812;48.864;9.190;2022-12-18T04:12:32;23.30;;;23.10;;
11510;SDS011;5812;48.864;9.190;2022-12-18T04:14:58;22.53;;;22.33;;
11510;SDS011;5812;48.864;9.190;2022-12-18T04:17:23;21.50;;;21.30;;
11510;SDS011;5812;48.864;9.190;2022-12-18T04:19:49;22.33;;;22.13;;
11510;SDS011;5812;48.864;9.190;2022-12-18T04:22:15;22.97;;;22.70;;
11510;SDS011;5812;48.864;9.190;2022-12-18T04:24:41;22.07;;;21.87;;
11510;SDS011;5812;48.864;9.190;2022-12-18T04:27:07;21.33;;;21.13;;
11510;SDS011;5812;48.864;9.190;2022-12-18T04:29:32;22.27;;;22.07;;
11510;SDS011;5812;48.864;9.190;2022-12-18T04:31:58;20.03;;;19.83;;
11510;SDS011;5812;48.864;9.190;2022-12-18T04:34:24;22.30;;;22.10;;
11510;SDS011;5812;48.864;9.190;2022-12-18T04:36:49;19.93;;;19.73;;
11510;SDS011;5812;48.864;9.190;2022-12-18T04:39:18;21.90;;;21.70;;
11510;SDS011;5812;48.864;9.190;2022-12-18T04:41:43;22.07;;;21.87;;
11510;SDS011;5812;48.864;9.190;2022-12-18T04:44:09;22.60;;;22.40;;
11510;SDS011;5812;48.864;9.190;2022-12-18T04:46:35;21.53;;;21.33;;
11510;SDS011;5812;48.864;9.190;2022-12-18T04:49:00;21.23;;;21.03;;
11510;SDS011;5812;48.864;9.190;2022-12-18T04:51:26;21.83;;;21.63;;
11510;SDS011;5812;48.864;9.190;2022-12-18T04:53:51;23.57;;;23.37;;
11510;SDS011;5812;48.864;9.190;2022-12-18T04:56:17;21.60;;;21.40;;
11510;SDS011;5812;48.864;9.190;2022-12-18T04:58:43;22.33;;;22.13;;
11510;SDS011;5812;48.864;9.190;2022-12-18T05:01:12;20.97;;;20.77;;
11510;SDS011;5812;48.864;9.190;2022-12-18T05:03:39;21.87;;;21.67;;
11510;SDS011;5812;48.864;9.190;2022-12-18T05:06:05;21.83;;;21.60;;
11510;SDS011;5812;48.864;9.190;2022-12-18T05:08:31;22.30;;;22.10;;
11510;SDS011;5812;48.864;9.190;2022-12-18T05:13:46;21.37;;;21.17;;
11510;SDS011;5812;48.864;9.190;2022-12-18T05:16:12;20.80;;;20.60;;
11510;SDS011;5812;48.864;9.190;2022-12-18T05:18:39;21.53;;;21.27;;
11510;SDS011;5812;48.864;9.190;2022-12-18T05:21:05;21.03;;;20.83;;
11510;SDS011;5812;48.864;9.190;2022-12-18T05:23:31;24.10;;;23.90;;
11510;SDS011;5812;48.864;9.190;2022-12-18T05:26:00;21.37;;;21.17;;
11510;SDS011;5812;48.864;9.190;2022-12-18T05:28:28;22.93;;;22.73;;
11510;SDS011;5812;48.864;9.190;2022-12-18T05:30:56;21.87;;;21.67;;
11510;SDS011;5812;48.864;9.190;2022-12-18T05:33:24;21.27;;;21.07;;
11510;SDS011;5812;48.864;9.190;2022-12-18T05:35:52;23.47;;;23.27;;
11510;SDS011;5812;48.864;9.190;2022-12-18T05:38:18;22.03;;;21.83;;
11510;SDS011;5812;48.864;9.190;2022-12-18T05:40:45;20.83;;;20.63;;
11510;SDS011;5812;48.864;9.190;2022-12-18T05:43:11;22.77;;;22.57;;
11510;SDS011;5812;48.864;9.190;2022-12-18T05:45:37;21.93;;;21.73;;
11510;SDS011;5812;48.864;9.190;2022-12-18T05:48:03;23.43;;;23.23;;
11510;SDS011;5812;48.864;9.190;2022-12-18T05:50:30;20.20;;;20.00;;
11510;SDS011;5812;48.864;9.190;2022-12-18T05:52:55;20.17;;;19.97;;
11510;SDS011;5812;48.864;9.190;2022-12-18T05:55:21;22.37;;;22.17;;
11510;SDS011;5812;48.864;9.190;2022-12-18T05:57:46;20.13;;;19.93;;
11510;SDS011;5812;48.864;9.190;2022-12-18T06:00:12;21.40;;;21.20;;
11510;SDS011;5812;48.864;9.190;2022-12-18T06:02:38;22.07;;;21.87;;
11510;SDS011;5812;48.864;9.190;2022-12-18T06:05:04;20.37;;;20.17;;
11510;SDS011;5812;48.864;9.190;2022-12-18T06:07:30;21.90;;;21.70;;
11510;SDS011;5812;48.864;9.190;2022-12-18T06:09:55;23.80;;;23.50;;
11510;SDS011;5812;48.864;9.190;2022-12-18T06:12:21;19.20;;;19.00;;
11510;SDS011;5812;48.864;9.190;2022-12-18T06:14:47;20.00;;;19.80;;
11510;SDS011;5812;48.864;9.190;2022-12-18T06:17:12;22.43;;;22.23;;
11510;SDS011;5812;48.864;9.190;2022-12-18T06:19:38;21.03;;;20.83;;
11510;SDS011;5812;48.864;9.190;2022-12-18T06:22:03;22.80;;;22.60;;
11510;SDS011;5812;48.864;9.190;2022-12-18T06:24:29;20.70;;;20.47;;
11510;SDS011;5812;48.864;9.190;2022-12-18T06:26:55;20.97;;;20.77;;
11510;SDS011;5812;48.864;9.190;2022-12-18T06:29:21;22.10;;;21.90;;
11510;SDS011;5812;48.864;9.190;2022-12-18T06:31:46;21.20;;;21.00;;
11510;SDS011;5812;48.864;9.190;2022-12-18T06:34:12;20.13;;;19.93;;
11510;SDS011;5812;48.864;9.190;2022-12-18T06:36:37;21.07;;;20.87;;
11510;SDS011;5812;48.864;9.190;2022-12-18T06:39:03;21.77;;;21.57;;
11510;SDS011;5812;48.864;9.190;2022-12-18T06:41:29;19.43;;;19.23;;
11510;SDS011;5812;48.864;9.190;2022-12-18T06:43:54;20.30;;;20.10;;
11510;SDS011;5812;48.864;9.190;2022-12-18T06:46:20;21.03;;;20.83;;
11510;SDS011;5812;48.864;9.190;2022-12-18T06:48:46;23.10;;;22.90;;
11510;SDS011;5812;48.864;9.190;2022-12-18T06:51:15;20.37;;;20.17;;
11510;SDS011;5812;48.864;9.190;2022-12-18T06:53:44;20.57;;;20.37;;
11510;SDS011;5812;48.864;9.190;2022-12-18T06:56:10;22.40;;;22.20;;
11510;SDS011;5812;48.864;9.190;2022-12-18T06:58:36;21.50;;;21.30;;
11510;SDS011;5812;48.864;9.190;2022-12-18T07:01:06;21.50;;;21.30;;
11510;SDS011;5812;48.864;9.190;2022-12-18T07:03:34;21.73;;;21.53;;
11510;SDS011;5812;48.864;9.190;2022-12-18T07:05:59;21.57;;;21.37;;
11510;SDS011;5812;48.864;9.190;2022-12-18T07:08:25;22.30;;;22.10;;
11510;SDS011;5812;48.864;9.190;2022-12-18T07:10:51;22.07;;;21.87;;
11510;SDS011;5812;48.864;9.190;2022-12-18T07:13:17;21.33;;;21.13;;
11510;SDS011;5812;48.864;9.190;2022-12-18T07:15:43;22.83;;;22.63;;
11510;SDS011;5812;48.864;9.190;2022-12-18T07:18:09;20.70;;;20.50;;
11510;SDS011;5812;48.864;9.190;2022-12-18T07:20:35;20.83;;;20.63;;
11510;SDS011;5812;48.864;9.190;2022-12-18T07:23:02;20.90;;;20.70;;
11510;SDS011;5812;48.864;9.190;2022-12-18T07:25:28;22.47;;;22.27;;
11510;SDS011;5812;48.864;9.190;2022-12-18T07:27:54;19.43;;;19.23;;
11510;SDS011;5812;48.864;9.190;2022-12-18T07:30:19;20.57;;;20.37;;
11510;SDS011;5812;48.864;9.190;2022-12-18T07:32:45;21.70;;;21.50;;
11510;SDS011;5812;48.864;9.190;2022-12-18T07:35:11;20.30;;;20.10;;
11510;SDS011;5812;48.864;9.190;2022-12-18T07:37:36;19.50;;;19.30;;
11510;SDS011;5812;48.864;9.190;2022-12-18T07:40:02;20.07;;;19.87;;
11510;SDS011;5812;48.864;9.190;2022-12-18T07:42:28;19.23;;;19.03;;
11510;SDS011;5812;48.864;9.190;2022-12-18T07:44:59;19.30;;;19.10;;
11510;SDS011;5812;48.864;9.190;2022-12-18T07:47:26;19.83;;;19.63;;
11510;SDS011;5812;48.864;9.190;2022-12-18T07:49:52;20.33;;;20.13;;
11510;SDS011;5812;48.864;9.190;2022-12-18T07:52:18;21.60;;;21.33;;
11510;SDS011;5812;48.864;9.190;2022-12-18T07:54:44;18.80;;;18.60;;
11510;SDS011;5812;48.864;9.190;2022-12-18T07:57:09;19.13;;;18.93;;
11510;SDS011;5812;48.864;9.190;2022-12-18T07:59:36;20.47;;;20.27;;
11510;SDS011;5812;48.864;9.190;2022-12-18T08:02:02;18.93;;;18.73;;
11510;SDS011;5812;48.864;9.190;2022-12-18T08:04:27;20.77;;;20.57;;
11510;SDS011;5812;48.864;9.190;2022-12-18T08:06:53;20.27;;;20.07;;
11510;SDS011;5812;48.864;9.190;2022-12-18T08:09:19;19.07;;;18.87;;
11510;SDS011;5812;48.864;9.190;2022-12-18T08:11:45;20.90;;;20.70;;
11510;SDS011;5812;48.864;9.190;2022-12-18T08:14:10;20.27;;;20.07;;
11510;SDS011;5812;48.864;9.190;2022-12-18T08:16:36;21.23;;;21.03;;
11510;SDS011;5812;48.864;9.190;2022-12-18T08:19:02;19.77;;;19.57;;
11510;SDS011;5812;48.864;9.190;2022-12-18T08:21:28;20.27;;;20.07;;
11510;SDS011;5812;48.864;9.190;2022-12-18T08:23:56;20.13;;;19.93;;
11510;SDS011;5812;48.864;9.190;2022-12-18T08:26:24;19.93;;;19.73;;
11510;SDS011;5812;48.864;9.190;2022-12-18T08:28:51;19.80;;;19.60;;
11510;SDS011;5812;48.864;9.190;2022-12-18T08:31:19;20.03;;;19.83;;
11510;SDS011;5812;48.864;9.190;2022-12-18T08:33:44;21.77;;;21.57;;
11510;SDS011;5812;48.864;9.190;2022-12-18T08:36:12;21.20;;;21.00;;
11510;SDS011;5812;48.864;9.190;2022-12-18T08:38:38;21.57;;;21.37;;
11510;SDS011;5812;48.864;9.190;2022-12-18T08:41:05;21.03;;;20.83;;
11510;SDS011;5812;48.864;9.190;2022-12-18T08:43:32;21.27;;;21.07;;
11510;SDS011;5812;48.864;9.190;2022-12-18T08:46:20;21.23;;;21.03;;
11510;SDS011;5812;48.864;9.190;2022-12-18T08:48:47;21.97;;;21.77;;
11510;SDS011;5812;48.864;9.190;2022-12-18T08:51:18;22.33;;;22.13;;
11510;SDS011;5812;48.864;9.190;2022-12-18T08:53:44;22.90;;;22.70;;
11510;SDS011;5812;48.864;9.190;2022-12-18T08:56:11;24.43;;;24.20;;
11510;SDS011;5812;48.864;9.190;2022-12-18T08:58:37;23.03;;;22.83;;
11510;SDS011;5812;48.864;9.190;2022-12-18T09:01:03;22.23;;;22.03;;
11510;SDS011;5812;48.864;9.190;2022-12-18T09:03:31;20.87;;;20.67;;
11510;SDS011;5812;48.864;9.190;2022-12-18T09:05:57;22.30;;;22.10;;
11510;SDS011;5812;48.864;9.190;2022-12-18T09:08:23;23.30;;;23.10;;
11510;SDS011;5812;48.864;9.190;2022-12-18T09:10:49;25.90;;;25.63;;
11510;SDS011;5812;48.864;9.190;2022-12-18T09:13:16;24.10;;;23.90;;
11510;SDS011;5812;48.864;9.190;2022-12-18T09:15:46;24.30;;;24.10;;
11510;SDS011;5812;48.864;9.190;2022-12-18T09:18:14;24.80;;;24.60;;
11510;SDS011;5812;48.864;9.190;2022-12-18T09:20:41;23.80;;;23.60;;
11510;SDS011;5812;48.864;9.190;2022-12-18T09:23:06;23.90;;;23.70;;
11510;SDS011;5812;48.864;9.190;2022-12-18T09:25:33;23.97;;;23.77;;
11510;SDS011;5812;48.864;9.190;2022-12-18T09:28:01;24.03;;;23.83;;
11510;SDS011;5812;48.864;9.190;2022-12-18T09:30:28;23.20;;;23.00;;
11510;SDS011;5812;48.864;9.190;2022-12-18T09:32:54;26.70;;;26.40;;
11510;SDS011;5812;48.864;9.190;2022-12-18T09:35:20;25.00;;;24.80;;
11510;SDS011;5812;48.864;9.190;2022-12-18T09:37:46;27.13;;;26.93;;
11510;SDS011;5812;48.864;9.190;2022-12-18T09:40:16;25.97;;;25.77;;
11510;SDS011;5812;48.864;9.190;2022-12-18T09:42:47;24.67;;;24.47;;
11510;SDS011;5812;48.864;9.190;2022-12-18T09:45:18;25.00;;;24.80;;
11510;SDS011;5812;48.864;9.190;2022-12-18T09:47:44;26.57;;;26.37;;
11510;SDS011;5812;48.864;9.190;2022-12-18T09:50:23;25.10;;;24.90;;
11510;SDS011;5812;48.864;9.190;2022-12-18T09:52:55;26.00;;;25.70;;
11510;SDS011;5812;48.864;9.190;2022-12-18T09:55:42;24.87;;;24.67;;
11510;SDS011;5812;48.864;9.190;2022-12-18T10:00:35;26.27;;;26.00;;
11510;SDS011;5812;48.864;9.190;2022-12-18T10:03:03;26.27;;;26.07;;
11510;SDS011;5812;48.864;9.190;2022-12-18T10:09:22;25.87;;;25.63;;
11510;SDS011;5812;48.864;9.190;2022-12-18T10:14:43;24.27;;;24.07;;
11510;SDS011;5812;48.864;9.190;2022-12-18T10:17:36;24.17;;;23.97;;
11510;SDS011;5812;48.864;9.190;2022-12-18T10:20:31;24.07;;;23.87;;
11510;SDS011;5812;48.864;9.190;2022-12-18T10:26:10;24.33;;;24.13;;
11510;SDS011;5812;48.864;9.190;2022-12-18T10:28:38;23.40;;;23.20;;
11510;SDS011;5812;48.864;9.190;2022-12-18T10:31:26;26.87;;;26.67;;
11510;SDS011;5812;48.864;9.190;2022-12-18T10:33:53;26.90;;;26.60;;
11510;SDS011;5812;48.864;9.190;2022-12-18T10:36:19;25.83;;;25.63;;
11510;SDS011;5812;48.864;9.190;2022-12-18T10:38:45;24.87;;;24.67;;
11510;SDS011;5812;48.864;9.190;2022-12-18T10:43:44;25.30;;;25.10;;
11510;SDS011;5812;48.864;9.190;2022-12-18T10:54:02;23.03;;;22.83;;
11510;SDS011;5812;48.864;9.190;2022-12-18T10:56:44;23.80;;;23.60;;
11510;SDS011;5812;48.864;9.190;2022-12-18T10:59:11;25.90;;;25.70;;
11510;SDS011;5812;48.864;9.190;2022-12-18T11:01:49;26.43;;;26.13;;
11510;SDS011;5812;48.864;9.190;2022-12-18T11:04:34;25.57;;;25.37;;
11510;SDS011;5812;48.864;9.190;2022-12-18T11:07:14;24.33;;;24.13;;
11510;SDS011;5812;48.864;9.190;2022-12-18T11:09:40;25.23;;;25.03;;
11510;SDS011;5812;48.864;9.190;2022-12-18T11:12:15;25.57;;;25.37;;
11510;SDS011;5812;48.864;9.190;2022-12-18T11:14:43;25.53;;;25.27;;
11510;SDS011;5812;48.864;9.190;2022-12-18T11:17:19;23.80;;;23.60;;
11510;SDS011;5812;48.864;9.190;2022-12-18T11:20:00;23.90;;;23.70;;
11510;SDS011;5812;48.864;9.190;2022-12-18T11:22:27;23.07;;;22.87;;
11510;SDS011;5812;48.864;9.190;2022-12-18T11:24:59;23.87;;;23.67;;
11510;SDS011;5812;48.864;9.190;2022-12-18T11:27:37;23.90;;;23.70;;
11510;SDS011;5812;48.864;9.190;2022-12-18T11:30:08;22.23;;;22.03;;
11510;SDS011;5812;48.864;9.190;2022-12-18T11:32:42;21.03;;;20.83;;
11510;SDS011;5812;48.864;9.190;2022-12-18T11:37:39;20.83;;;20.63;;
11510;SDS011;5812;48.864;9.190;2022-12-18T11:40:13;20.10;;;19.90;;
11510;SDS011;5812;48.864;9.190;2022-12-18T11:45:39;21.10;;;20.90;;
11510;SDS011;5812;48.864;9.190;2022-12-18T11:51:34;18.60;;;18.50;;
11510;SDS011;5812;48.864;9.190;2022-12-18T11:54:17;18.57;;;18.47;;
11510;SDS011;5812;48.864;9.190;2022-12-18T11:56:46;19.57;;;19.47;;
11510;SDS011;5812;48.864;9.190;2022-12-18T11:59:16;18.17;;;18.07;;
11510;SDS011;5812;48.864;9.190;2022-12-18T12:01:51;18.63;;;18.53;;
11510;SDS011;5812;48.864;9.190;2022-12-18T12:18:18;19.33;;;19.23;;
11510;SDS011;5812;48.864;9.190;2022-12-18T12:21:04;17.77;;;17.67;;
11510;SDS011;5812;48.864;9.190;2022-12-18T12:23:41;16.90;;;16.80;;
11510;SDS011;5812;48.864;9.190;2022-12-18T12:26:10;20.23;;;20.13;;
11510;SDS011;5812;48.864;9.190;2022-12-18T12:29:04;19.67;;;19.57;;
11510;SDS011;5812;48.864;9.190;2022-12-18T12:31:52;18.93;;;18.83;;
11510;SDS011;5812;48.864;9.190;2022-12-18T12:34:36;19.47;;;19.37;;
11510;SDS011;5812;48.864;9.190;2022-12-18T12:40:13;18.57;;;18.47;;
11510;SDS011;5812;48.864;9.190;2022-12-18T12:42:47;19.63;;;19.53;;
11510;SDS011;5812;48.864;9.190;2022-12-18T12:51:02;19.03;;;18.93;;
11510;SDS011;5812;48.864;9.190;2022-12-18T12:53:34;19.03;;;18.93;;
11510;SDS011;5812;48.864;9.190;2022-12-18T12:56:03;19.67;;;19.57;;
11510;SDS011;5812;48.864;9.190;2022-12-18T12:58:36;20.13;;;20.03;;
11510;SDS011;5812;48.864;9.190;2022-12-18T13:09:34;18.10;;;18.00;;
11510;SDS011;5812;48.864;9.190;2022-12-18T13:13:21;18.37;;;18.27;;
11510;SDS011;5812;48.864;9.190;2022-12-18T13:15:47;19.10;;;19.00;;
11510;SDS011;5812;48.864;9.190;2022-12-18T13:18:48;18.33;;;18.23;;
11510;SDS011;5812;48.864;9.190;2022-12-18T13:21:27;17.10;;;17.00;;
11510;SDS011;5812;48.864;9.190;2022-12-18T13:23:54;17.60;;;17.50;;
11510;SDS011;5812;48.864;9.190;2022-12-18T13:28:52;19.73;;;19.63;;
11510;SDS011;5812;48.864;9.190;2022-12-18T13:34:21;20.30;;;20.10;;
11510;SDS011;5812;48.864;9.190;2022-12-18T13:36:51;17.67;;;17.57;;
11510;SDS011;5812;48.864;9.190;2022-12-18T13:41:48;17.87;;;17.77;;
11510;SDS011;5812;48.864;9.190;2022-12-18T13:47:01;17.80;;;17.70;;
11510;SDS011;5812;48.864;9.190;2022-12-18T13:49:45;17.93;;;17.83;;
11510;SDS011;5812;48.864;9.190;2022-12-18T13:52:16;17.90;;;17.80;;
11510;SDS011;5812;48.864;9.190;2022-12-18T13:54:45;18.30;;;18.20;;
11510;SDS011;5812;48.864;9.190;2022-12-18T13:59:57;18.40;;;18.30;;
11510;SDS011;5812;48.864;9.190;2022-12-18T14:02:37;18.13;;;18.03;;
11510;SDS011;5812;48.864;9.190;2022-12-18T14:05:03;18.13;;;18.03;;
11510;SDS011;5812;48.864;9.190;2022-12-18T14:07:29;19.10;;;19.00;;
11510;SDS011;5812;48.864;9.190;2022-12-18T14:09:57;17.60;;;17.50;;
11510;SDS011;5812;48.864;9.190;2022-12-18T14:12:25;18.43;;;18.33;;
11510;SDS011;5812;48.864;9.190;2022-12-18T14:20:46;17.10;;;17.00;;
11510;SDS011;5812;48.864;9.190;2022-12-18T14:28:54;17.60;;;17.50;;
11510;SDS011;5812;48.864;9.190;2022-12-18T14:31:27;17.80;;;17.70;;
11510;SDS011;5812;48.864;9.190;2022-12-18T14:33:54;18.70;;;18.60;;
11510;SDS011;5812;48.864;9.190;2022-12-18T14:36:21;17.77;;;17.67;;
11510;SDS011;5812;48.864;9.190;2022-12-18T14:38:52;18.93;;;18.83;;
11510;SDS011;5812;48.864;9.190;2022-12-18T14:41:20;17.70;;;17.60;;
11510;SDS011;5812;48.864;9.190;2022-12-18T14:43:47;18.70;;;18.60;;
11510;SDS011;5812;48.864;9.190;2022-12-18T14:49:44;19.70;;;19.60;;
11510;SDS011;5812;48.864;9.190;2022-12-18T14:51:59;19.97;;;19.77;;
11510;SDS011;5812;48.864;9.190;2022-12-18T14:54:27;20.27;;;20.13;;
11510;SDS011;5812;48.864;9.190;2022-12-18T15:00:07;20.57;;;20.37;;
11510;SDS011;5812;48.864;9.190;2022-12-18T15:02:40;19.83;;;19.73;;
11510;SDS011;5812;48.864;9.190;2022-12-18T15:07:44;20.80;;;20.67;;
11510;SDS011;5812;48.864;9.190;2022-12-18T15:10:12;19.67;;;19.57;;
11510;SDS011;5812;48.864;9.190;2022-12-18T15:21:09;22.33;;;22.13;;
11510;SDS011;5812;48.864;9.190;2022-12-18T15:26:10;23.17;;;22.97;;
11510;SDS011;5812;48.864;9.190;2022-12-18T15:28:48;22.07;;;21.87;;
11510;SDS011;5812;48.864;9.190;2022-12-18T15:36:18;21.47;;;21.27;;
11510;SDS011;5812;48.864;9.190;2022-12-18T15:38:48;22.37;;;22.17;;
11510;SDS011;5812;48.864;9.190;2022-12-18T15:41:15;23.60;;;23.40;;
11510;SDS011;5812;48.864;9.190;2022-12-18T15:43:43;23.33;;;23.13;;
11510;SDS011;5812;48.864;9.190;2022-12-18T15:46:12;24.43;;;24.23;;
11510;SDS011;5812;48.864;9.190;2022-12-18T15:48:44;23.67;;;23.47;;
11510;SDS011;5812;48.864;9.190;2022-12-18T15:51:21;22.87;;;22.67;;
11510;SDS011;5812;48.864;9.190;2022-12-18T15:53:50;24.47;;;24.27;;
11510;SDS011;5812;48.864;9.190;2022-12-18T15:56:19;25.13;;;24.93;;
11510;SDS011;5812;48.864;9.190;2022-12-18T15:59:13;24.90;;;24.70;;
11510;SDS011;5812;48.864;9.190;2022-12-18T16:01:41;25.47;;;25.27;;
11510;SDS011;5812;48.864;9.190;2022-12-18T16:04:10;25.67;;;25.47;;
11510;SDS011;5812;48.864;9.190;2022-12-18T16:06:38;27.93;;;27.67;;
11510;SDS011;5812;48.864;9.190;2022-12-18T16:09:04;25.33;;;25.13;;
11510;SDS011;5812;48.864;9.190;2022-12-18T16:11:31;25.63;;;25.43;;
11510;SDS011;5812;48.864;9.190;2022-12-18T16:14:21;23.17;;;22.97;;
11510;SDS011;5812;48.864;9.190;2022-12-18T16:16:49;25.03;;;24.80;;
11510;SDS011;5812;48.864;9.190;2022-12-18T16:19:17;24.53;;;24.33;;
11510;SDS011;5812;48.864;9.190;2022-12-18T16:21:43;25.53;;;25.33;;
11510;SDS011;5812;48.864;9.190;2022-12-18T16:24:20;25.13;;;24.93;;
11510;SDS011;5812;48.864;9.190;2022-12-18T16:26:48;25.03;;;24.83;;
11510;SDS011;5812;48.864;9.190;2022-12-18T16:29:16;25.00;;;24.80;;
11510;SDS011;5812;48.864;9.190;2022-12-18T16:31:42;24.27;;;24.07;;
11510;SDS011;5812;48.864;9.190;2022-12-18T16:36:48;23.03;;;22.83;;
11510;SDS011;5812;48.864;9.190;2022-12-18T16:39:14;24.93;;;24.73;;
11510;SDS011;5812;48.864;9.190;2022-12-18T16:41:40;25.13;;;24.93;;
11510;SDS011;5812;48.864;9.190;2022-12-18T16:44:05;24.90;;;24.70;;
11510;SDS011;5812;48.864;9.190;2022-12-18T16:46:31;25.00;;;24.70;;
11510;SDS011;5812;48.864;9.190;2022-12-18T16:48:58;24.57;;;24.37;;
11510;SDS011;5812;48.864;9.190;2022-12-18T16:51:24;25.00;;;24.80;;
11510;SDS011;5812;48.864;9.190;2022-12-18T16:53:50;26.83;;;26.63;;
11510;SDS011;5812;48.864;9.190;2022-12-18T16:56:17;26.60;;;26.40;;
11510;SDS011;5812;48.864;9.190;2022-12-18T16:58:43;26.73;;;26.43;;
11510;SDS011;5812;48.864;9.190;2022-12-18T17:01:09;27.07;;;26.87;;
11510;SDS011;5812;48.864;9.190;2022-12-18T17:03:35;28.73;;;28.43;;
11510;SDS011;5812;48.864;9.190;2022-12-18T17:06:02;27.43;;;27.13;;
11510;SDS011;5812;48.864;9.190;2022-12-18T17:08:29;32.50;;;32.20;;
11510;SDS011;5812;48.864;9.190;2022-12-18T17:10:54;27.97;;;27.70;;
11510;SDS011;5812;48.864;9.190;2022-12-18T17:13:25;25.60;;;25.33;;
11510;SDS011;5812;48.864;9.190;2022-12-18T17:15:51;26.30;;;26.10;;